sensor_id;sensor_type;location;lat;lon;timestamp;P1;durP1;ratioP1;P2;durP2;ratioP2
20415;SDS011;10367;52.202;5.996;2022-07-09T00:00:53;16.83;;;15.33;;
20415;SDS011;10367;52.202;5.996;2022-07-09T00:03:22;17.77;;;16.13;;
20415;SDS011;10367;52.202;5.996;2022-07-09T00:05:51;15.83;;;14.53;;
20415;SDS011;10367;52.202;5.996;2022-07-09T00:08:20;14.57;;;13.53;;
20415;SDS011;10367;52.202;5.996;2022-07-09T00:10:49;17.07;;;15.53;;
20415;SDS011;10367;52.202;5.996;2022-07-09T00:13:18;16.00;;;14.63;;
20415;SDS011;10367;52.202;5.996;2022-07-09T00:15:48;18.77;;;16.93;;
20415;SDS011;10367;52.202;5.996;2022-07-09T00:18:19;20.90;;;17.03;;
20415;SDS011;10367;52.202;5.996;2022-07-09T00:20:48;18.13;;;16.30;;
20415;SDS011;10367;52.202;5.996;2022-07-09T00:23:17;17.77;;;15.97;;
20415;SDS011;10367;52.202;5.996;2022-07-09T00:25:46;17.57;;;16.07;;
20415;SDS011;10367;52.202;5.996;2022-07-09T00:28:15;18.17;;;16.30;;
20415;SDS011;10367;52.202;5.996;2022-07-09T00:30:43;18.50;;;16.23;;
20415;SDS011;10367;52.202;5.996;2022-07-09T00:33:13;17.07;;;15.47;;
20415;SDS011;10367;52.202;5.996;2022-07-09T00:35:42;17.00;;;15.37;;
20415;SDS011;10367;52.202;5.996;2022-07-09T00:38:10;15.57;;;14.37;;
20415;SDS011;10367;52.202;5.996;2022-07-09T00:40:39;18.23;;;16.60;;
20415;SDS011;10367;52.202;5.996;2022-07-09T00:43:17;16.00;;;14.53;;
20415;SDS011;10367;52.202;5.996;2022-07-09T00:45:47;16.07;;;14.70;;
20415;SDS011;10367;52.202;5.996;2022-07-09T00:48:17;16.53;;;15.23;;
20415;SDS011;10367;52.202;5.996;2022-07-09T00:50:47;17.33;;;14.87;;
20415;SDS011;10367;52.202;5.996;2022-07-09T00:53:17;15.70;;;14.50;;
20415;SDS011;10367;52.202;5.996;2022-07-09T00:55:49;15.90;;;14.60;;
20415;SDS011;10367;52.202;5.996;2022-07-09T00:58:19;15.10;;;13.90;;
20415;SDS011;10367;52.202;5.996;2022-07-09T01:00:50;16.77;;;15.20;;
20415;SDS011;10367;52.202;5.996;2022-07-09T01:03:21;15.83;;;14.23;;
20415;SDS011;10367;52.202;5.996;2022-07-09T01:05:50;15.47;;;14.27;;
20415;SDS011;10367;52.202;5.996;2022-07-09T01:08:19;15.77;;;14.40;;
20415;SDS011;10367;52.202;5.996;2022-07-09T01:10:48;16.43;;;14.90;;
20415;SDS011;10367;52.202;5.996;2022-07-09T01:13:20;16.53;;;14.97;;
20415;SDS011;10367;52.202;5.996;2022-07-09T01:15:49;16.70;;;15.13;;
20415;SDS011;10367;52.202;5.996;2022-07-09T01:18:17;15.90;;;14.50;;
20415;SDS011;10367;52.202;5.996;2022-07-09T01:20:50;17.40;;;15.70;;
20415;SDS011;10367;52.202;5.996;2022-07-09T01:23:19;15.87;;;14.53;;
20415;SDS011;10367;52.202;5.996;2022-07-09T01:25:48;15.67;;;14.27;;
20415;SDS011;10367;52.202;5.996;2022-07-09T01:28:16;16.67;;;15.00;;
20415;SDS011;10367;52.202;5.996;2022-07-09T01:30:45;16.87;;;15.23;;
20415;SDS011;10367;52.202;5.996;2022-07-09T01:33:14;15.67;;;14.23;;
20415;SDS011;10367;52.202;5.996;2022-07-09T01:35:43;14.87;;;13.67;;
20415;SDS011;10367;52.202;5.996;2022-07-09T01:38:13;14.53;;;13.33;;
20415;SDS011;10367;52.202;5.996;2022-07-09T01:40:42;16.53;;;14.60;;
20415;SDS011;10367;52.202;5.996;2022-07-09T01:43:10;15.77;;;14.37;;
20415;SDS011;10367;52.202;5.996;2022-07-09T01:45:41;15.97;;;14.47;;
20415;SDS011;10367;52.202;5.996;2022-07-09T01:48:10;15.20;;;13.97;;
20415;SDS011;10367;52.202;5.996;2022-07-09T01:50:42;16.57;;;15.20;;
20415;SDS011;10367;52.202;5.996;2022-07-09T01:53:11;15.47;;;14.10;;
20415;SDS011;10367;52.202;5.996;2022-07-09T01:55:41;15.20;;;13.90;;
20415;SDS011;10367;52.202;5.996;2022-07-09T01:58:10;16.03;;;14.60;;
20415;SDS011;10367;52.202;5.996;2022-07-09T02:00:40;15.00;;;13.83;;
20415;SDS011;10367;52.202;5.996;2022-07-09T02:03:09;17.90;;;14.80;;
20415;SDS011;10367;52.202;5.996;2022-07-09T02:05:38;15.27;;;13.80;;
20415;SDS011;10367;52.202;5.996;2022-07-09T02:08:07;17.97;;;14.60;;
20415;SDS011;10367;52.202;5.996;2022-07-09T02:10:37;16.27;;;14.70;;
20415;SDS011;10367;52.202;5.996;2022-07-09T02:13:06;15.87;;;14.47;;
20415;SDS011;10367;52.202;5.996;2022-07-09T02:15:35;16.97;;;15.30;;
20415;SDS011;10367;52.202;5.996;2022-07-09T02:18:04;17.83;;;15.70;;
20415;SDS011;10367;52.202;5.996;2022-07-09T02:20:33;18.17;;;15.47;;
20415;SDS011;10367;52.202;5.996;2022-07-09T02:23:01;17.73;;;16.00;;
20415;SDS011;10367;52.202;5.996;2022-07-09T02:25:30;15.87;;;14.37;;
20415;SDS011;10367;52.202;5.996;2022-07-09T02:28:00;16.13;;;14.53;;
20415;SDS011;10367;52.202;5.996;2022-07-09T02:30:29;16.53;;;15.03;;
20415;SDS011;10367;52.202;5.996;2022-07-09T02:32:58;17.57;;;15.80;;
20415;SDS011;10367;52.202;5.996;2022-07-09T02:35:27;16.23;;;14.53;;
20415;SDS011;10367;52.202;5.996;2022-07-09T02:37:56;17.07;;;15.37;;
20415;SDS011;10367;52.202;5.996;2022-07-09T02:40:24;16.17;;;14.57;;
20415;SDS011;10367;52.202;5.996;2022-07-09T02:42:53;15.67;;;14.23;;
20415;SDS011;10367;52.202;5.996;2022-07-09T02:45:23;14.23;;;13.13;;
20415;SDS011;10367;52.202;5.996;2022-07-09T02:47:52;17.30;;;15.67;;
20415;SDS011;10367;52.202;5.996;2022-07-09T02:50:21;16.47;;;14.97;;
20415;SDS011;10367;52.202;5.996;2022-07-09T02:52:49;15.90;;;14.40;;
20415;SDS011;10367;52.202;5.996;2022-07-09T02:55:20;15.57;;;13.97;;
20415;SDS011;10367;52.202;5.996;2022-07-09T02:57:49;15.83;;;14.43;;
20415;SDS011;10367;52.202;5.996;2022-07-09T03:00:17;16.90;;;15.30;;
20415;SDS011;10367;52.202;5.996;2022-07-09T03:02:47;17.37;;;15.77;;
20415;SDS011;10367;52.202;5.996;2022-07-09T03:05:16;17.90;;;16.07;;
20415;SDS011;10367;52.202;5.996;2022-07-09T03:07:45;17.20;;;15.50;;
20415;SDS011;10367;52.202;5.996;2022-07-09T03:10:14;16.23;;;14.63;;
20415;SDS011;10367;52.202;5.996;2022-07-09T03:12:42;17.07;;;15.20;;
20415;SDS011;10367;52.202;5.996;2022-07-09T03:15:11;18.23;;;16.43;;
20415;SDS011;10367;52.202;5.996;2022-07-09T03:17:41;16.20;;;14.70;;
20415;SDS011;10367;52.202;5.996;2022-07-09T03:20:12;16.57;;;14.97;;
20415;SDS011;10367;52.202;5.996;2022-07-09T03:22:41;19.33;;;16.33;;
20415;SDS011;10367;52.202;5.996;2022-07-09T03:25:10;16.63;;;15.33;;
20415;SDS011;10367;52.202;5.996;2022-07-09T03:27:38;17.90;;;15.97;;
20415;SDS011;10367;52.202;5.996;2022-07-09T03:30:07;20.40;;;18.20;;
20415;SDS011;10367;52.202;5.996;2022-07-09T03:32:37;20.37;;;17.03;;
20415;SDS011;10367;52.202;5.996;2022-07-09T03:35:06;20.10;;;17.97;;
20415;SDS011;10367;52.202;5.996;2022-07-09T03:37:37;20.17;;;17.83;;
20415;SDS011;10367;52.202;5.996;2022-07-09T03:40:06;25.00;;;19.07;;
20415;SDS011;10367;52.202;5.996;2022-07-09T03:42:36;26.77;;;19.07;;
20415;SDS011;10367;52.202;5.996;2022-07-09T03:45:05;22.63;;;18.97;;
20415;SDS011;10367;52.202;5.996;2022-07-09T03:47:34;18.37;;;16.60;;
20415;SDS011;10367;52.202;5.996;2022-07-09T03:50:03;21.30;;;18.73;;
20415;SDS011;10367;52.202;5.996;2022-07-09T03:52:33;21.17;;;18.47;;
20415;SDS011;10367;52.202;5.996;2022-07-09T03:55:03;20.57;;;18.37;;
20415;SDS011;10367;52.202;5.996;2022-07-09T03:57:32;18.97;;;16.97;;
20415;SDS011;10367;52.202;5.996;2022-07-09T04:00:01;21.17;;;17.53;;
20415;SDS011;10367;52.202;5.996;2022-07-09T04:02:30;19.83;;;17.63;;
20415;SDS011;10367;52.202;5.996;2022-07-09T04:04:58;19.43;;;16.87;;
20415;SDS011;10367;52.202;5.996;2022-07-09T04:07:27;21.30;;;17.10;;
20415;SDS011;10367;52.202;5.996;2022-07-09T04:09:56;22.00;;;18.23;;
20415;SDS011;10367;52.202;5.996;2022-07-09T04:12:26;25.93;;;19.70;;
20415;SDS011;10367;52.202;5.996;2022-07-09T04:14:55;19.77;;;16.93;;
20415;SDS011;10367;52.202;5.996;2022-07-09T04:17:23;20.47;;;17.23;;
20415;SDS011;10367;52.202;5.996;2022-07-09T04:19:52;20.37;;;17.80;;
20415;SDS011;10367;52.202;5.996;2022-07-09T04:22:21;23.63;;;18.93;;
20415;SDS011;10367;52.202;5.996;2022-07-09T04:24:55;21.60;;;18.97;;
20415;SDS011;10367;52.202;5.996;2022-07-09T04:27:24;19.53;;;17.53;;
20415;SDS011;10367;52.202;5.996;2022-07-09T04:29:54;20.73;;;17.77;;
20415;SDS011;10367;52.202;5.996;2022-07-09T04:32:23;20.77;;;18.60;;
20415;SDS011;10367;52.202;5.996;2022-07-09T04:34:51;23.93;;;20.23;;
20415;SDS011;10367;52.202;5.996;2022-07-09T04:37:20;21.10;;;18.43;;
20415;SDS011;10367;52.202;5.996;2022-07-09T04:39:49;20.83;;;18.70;;
20415;SDS011;10367;52.202;5.996;2022-07-09T04:42:17;20.73;;;18.67;;
20415;SDS011;10367;52.202;5.996;2022-07-09T04:44:48;21.47;;;18.57;;
20415;SDS011;10367;52.202;5.996;2022-07-09T04:47:17;21.87;;;19.43;;
20415;SDS011;10367;52.202;5.996;2022-07-09T04:49:46;23.23;;;19.00;;
20415;SDS011;10367;52.202;5.996;2022-07-09T04:52:15;24.17;;;20.83;;
20415;SDS011;10367;52.202;5.996;2022-07-09T04:54:46;26.47;;;21.33;;
20415;SDS011;10367;52.202;5.996;2022-07-09T04:57:15;23.97;;;19.77;;
20415;SDS011;10367;52.202;5.996;2022-07-09T04:59:43;20.57;;;18.63;;
20415;SDS011;10367;52.202;5.996;2022-07-09T05:02:13;22.37;;;19.90;;
20415;SDS011;10367;52.202;5.996;2022-07-09T05:04:42;25.37;;;21.03;;
20415;SDS011;10367;52.202;5.996;2022-07-09T05:07:11;30.50;;;22.10;;
20415;SDS011;10367;52.202;5.996;2022-07-09T05:09:40;22.87;;;20.47;;
20415;SDS011;10367;52.202;5.996;2022-07-09T05:12:08;32.20;;;21.40;;
20415;SDS011;10367;52.202;5.996;2022-07-09T05:14:37;21.70;;;19.20;;
20415;SDS011;10367;52.202;5.996;2022-07-09T05:17:06;24.70;;;20.90;;
20415;SDS011;10367;52.202;5.996;2022-07-09T05:19:36;22.40;;;20.00;;
20415;SDS011;10367;52.202;5.996;2022-07-09T05:22:05;22.90;;;20.47;;
20415;SDS011;10367;52.202;5.996;2022-07-09T05:24:34;25.13;;;20.93;;
20415;SDS011;10367;52.202;5.996;2022-07-09T05:27:03;28.67;;;21.70;;
20415;SDS011;10367;52.202;5.996;2022-07-09T05:29:32;28.00;;;20.33;;
20415;SDS011;10367;52.202;5.996;2022-07-09T05:32:01;25.20;;;19.73;;
20415;SDS011;10367;52.202;5.996;2022-07-09T05:34:30;22.60;;;19.07;;
20415;SDS011;10367;52.202;5.996;2022-07-09T05:37:00;26.63;;;20.13;;
20415;SDS011;10367;52.202;5.996;2022-07-09T05:42:34;22.87;;;19.70;;
20415;SDS011;10367;52.202;5.996;2022-07-09T05:45:03;22.23;;;19.50;;
20415;SDS011;10367;52.202;5.996;2022-07-09T05:47:34;21.57;;;18.90;;
20415;SDS011;10367;52.202;5.996;2022-07-09T05:50:03;24.80;;;20.80;;
20415;SDS011;10367;52.202;5.996;2022-07-09T05:52:33;22.03;;;19.67;;
20415;SDS011;10367;52.202;5.996;2022-07-09T05:55:02;22.37;;;19.97;;
20415;SDS011;10367;52.202;5.996;2022-07-09T05:57:34;23.17;;;19.97;;
20415;SDS011;10367;52.202;5.996;2022-07-09T06:00:03;22.10;;;19.83;;
20415;SDS011;10367;52.202;5.996;2022-07-09T06:02:34;24.20;;;20.93;;
20415;SDS011;10367;52.202;5.996;2022-07-09T06:05:03;22.47;;;19.67;;
20415;SDS011;10367;52.202;5.996;2022-07-09T06:07:33;21.97;;;19.83;;
20415;SDS011;10367;52.202;5.996;2022-07-09T06:10:02;22.97;;;20.53;;
20415;SDS011;10367;52.202;5.996;2022-07-09T06:12:31;25.70;;;20.90;;
20415;SDS011;10367;52.202;5.996;2022-07-09T06:15:02;21.83;;;19.77;;
20415;SDS011;10367;52.202;5.996;2022-07-09T06:17:32;21.33;;;19.33;;
20415;SDS011;10367;52.202;5.996;2022-07-09T06:20:01;21.97;;;19.63;;
20415;SDS011;10367;52.202;5.996;2022-07-09T06:22:31;24.03;;;21.53;;
20415;SDS011;10367;52.202;5.996;2022-07-09T06:25:01;22.43;;;20.10;;
20415;SDS011;10367;52.202;5.996;2022-07-09T06:27:29;22.87;;;20.33;;
20415;SDS011;10367;52.202;5.996;2022-07-09T06:29:58;19.00;;;17.33;;
20415;SDS011;10367;52.202;5.996;2022-07-09T06:32:27;22.63;;;20.50;;
20415;SDS011;10367;52.202;5.996;2022-07-09T06:34:55;21.33;;;19.20;;
20415;SDS011;10367;52.202;5.996;2022-07-09T06:37:24;24.40;;;21.90;;
20415;SDS011;10367;52.202;5.996;2022-07-09T06:39:53;20.53;;;18.87;;
20415;SDS011;10367;52.202;5.996;2022-07-09T06:42:25;20.67;;;18.80;;
20415;SDS011;10367;52.202;5.996;2022-07-09T06:45:00;20.33;;;18.53;;
20415;SDS011;10367;52.202;5.996;2022-07-09T06:47:29;21.77;;;19.67;;
20415;SDS011;10367;52.202;5.996;2022-07-09T06:49:58;20.60;;;18.87;;
20415;SDS011;10367;52.202;5.996;2022-07-09T06:52:27;20.53;;;18.53;;
20415;SDS011;10367;52.202;5.996;2022-07-09T06:54:55;19.13;;;17.37;;
20415;SDS011;10367;52.202;5.996;2022-07-09T06:57:25;19.83;;;17.93;;
20415;SDS011;10367;52.202;5.996;2022-07-09T06:59:55;21.03;;;19.23;;
20415;SDS011;10367;52.202;5.996;2022-07-09T07:02:24;18.60;;;17.23;;
20415;SDS011;10367;52.202;5.996;2022-07-09T07:04:52;19.03;;;17.43;;
20415;SDS011;10367;52.202;5.996;2022-07-09T07:07:21;19.77;;;18.00;;
20415;SDS011;10367;52.202;5.996;2022-07-09T07:09:50;17.20;;;15.90;;
20415;SDS011;10367;52.202;5.996;2022-07-09T07:12:18;20.63;;;18.70;;
20415;SDS011;10367;52.202;5.996;2022-07-09T07:14:49;18.43;;;16.93;;
20415;SDS011;10367;52.202;5.996;2022-07-09T07:17:18;20.00;;;18.40;;
20415;SDS011;10367;52.202;5.996;2022-07-09T07:19:47;19.83;;;18.33;;
20415;SDS011;10367;52.202;5.996;2022-07-09T07:22:16;20.30;;;18.67;;
20415;SDS011;10367;52.202;5.996;2022-07-09T07:24:44;17.87;;;16.67;;
20415;SDS011;10367;52.202;5.996;2022-07-09T07:27:13;19.97;;;18.37;;
20415;SDS011;10367;52.202;5.996;2022-07-09T07:29:42;18.87;;;17.50;;
20415;SDS011;10367;52.202;5.996;2022-07-09T07:32:12;19.23;;;17.70;;
20415;SDS011;10367;52.202;5.996;2022-07-09T07:34:41;20.50;;;18.63;;
20415;SDS011;10367;52.202;5.996;2022-07-09T07:37:09;19.73;;;18.33;;
20415;SDS011;10367;52.202;5.996;2022-07-09T07:39:38;18.60;;;17.30;;
20415;SDS011;10367;52.202;5.996;2022-07-09T07:42:07;20.80;;;18.93;;
20415;SDS011;10367;52.202;5.996;2022-07-09T07:44:36;20.63;;;19.03;;
20415;SDS011;10367;52.202;5.996;2022-07-09T07:47:05;20.57;;;18.87;;
20415;SDS011;10367;52.202;5.996;2022-07-09T07:49:35;22.17;;;19.97;;
20415;SDS011;10367;52.202;5.996;2022-07-09T07:52:04;22.50;;;20.60;;
20415;SDS011;10367;52.202;5.996;2022-07-09T07:54:34;22.73;;;20.93;;
20415;SDS011;10367;52.202;5.996;2022-07-09T07:57:03;24.63;;;22.27;;
20415;SDS011;10367;52.202;5.996;2022-07-09T07:59:33;21.27;;;19.47;;
20415;SDS011;10367;52.202;5.996;2022-07-09T08:02:01;22.80;;;20.87;;
20415;SDS011;10367;52.202;5.996;2022-07-09T08:04:30;22.77;;;20.80;;
20415;SDS011;10367;52.202;5.996;2022-07-09T08:07:00;22.37;;;20.33;;
20415;SDS011;10367;52.202;5.996;2022-07-09T08:09:29;22.17;;;20.37;;
20415;SDS011;10367;52.202;5.996;2022-07-09T08:11:59;22.37;;;20.50;;
20415;SDS011;10367;52.202;5.996;2022-07-09T08:14:28;24.57;;;22.03;;
20415;SDS011;10367;52.202;5.996;2022-07-09T08:16:56;24.00;;;22.10;;
20415;SDS011;10367;52.202;5.996;2022-07-09T08:19:25;22.27;;;20.43;;
20415;SDS011;10367;52.202;5.996;2022-07-09T08:22:00;22.53;;;20.63;;
20415;SDS011;10367;52.202;5.996;2022-07-09T08:24:29;24.97;;;22.47;;
20415;SDS011;10367;52.202;5.996;2022-07-09T08:26:57;22.63;;;20.60;;
20415;SDS011;10367;52.202;5.996;2022-07-09T08:29:26;23.40;;;21.37;;
20415;SDS011;10367;52.202;5.996;2022-07-09T08:31:55;22.33;;;20.43;;
20415;SDS011;10367;52.202;5.996;2022-07-09T08:34:24;22.80;;;20.53;;
20415;SDS011;10367;52.202;5.996;2022-07-09T08:36:53;23.40;;;21.13;;
20415;SDS011;10367;52.202;5.996;2022-07-09T08:39:23;24.50;;;22.30;;
20415;SDS011;10367;52.202;5.996;2022-07-09T08:41:51;23.77;;;21.67;;
20415;SDS011;10367;52.202;5.996;2022-07-09T08:44:21;24.37;;;22.17;;
20415;SDS011;10367;52.202;5.996;2022-07-09T08:46:54;23.13;;;21.13;;
20415;SDS011;10367;52.202;5.996;2022-07-09T08:49:25;22.27;;;20.67;;
20415;SDS011;10367;52.202;5.996;2022-07-09T08:51:55;23.20;;;21.17;;
20415;SDS011;10367;52.202;5.996;2022-07-09T08:54:26;24.67;;;22.50;;
20415;SDS011;10367;52.202;5.996;2022-07-09T08:56:56;22.00;;;20.10;;
20415;SDS011;10367;52.202;5.996;2022-07-09T08:59:24;24.03;;;21.93;;
20415;SDS011;10367;52.202;5.996;2022-07-09T09:01:53;23.40;;;21.40;;
20415;SDS011;10367;52.202;5.996;2022-07-09T09:04:22;23.23;;;21.23;;
20415;SDS011;10367;52.202;5.996;2022-07-09T09:06:51;19.93;;;18.53;;
20415;SDS011;10367;52.202;5.996;2022-07-09T09:09:20;22.17;;;20.27;;
20415;SDS011;10367;52.202;5.996;2022-07-09T09:11:50;21.93;;;20.23;;
20415;SDS011;10367;52.202;5.996;2022-07-09T09:14:23;19.97;;;18.63;;
20415;SDS011;10367;52.202;5.996;2022-07-09T09:16:52;22.00;;;20.33;;
20415;SDS011;10367;52.202;5.996;2022-07-09T09:19:21;20.63;;;19.03;;
20415;SDS011;10367;52.202;5.996;2022-07-09T09:21:51;21.27;;;19.70;;
20415;SDS011;10367;52.202;5.996;2022-07-09T09:24:25;22.13;;;20.40;;
20415;SDS011;10367;52.202;5.996;2022-07-09T09:26:57;23.23;;;21.30;;
20415;SDS011;10367;52.202;5.996;2022-07-09T09:29:26;20.97;;;19.57;;
20415;SDS011;10367;52.202;5.996;2022-07-09T09:31:55;20.63;;;19.23;;
20415;SDS011;10367;52.202;5.996;2022-07-09T09:34:24;21.20;;;19.63;;
20415;SDS011;10367;52.202;5.996;2022-07-09T09:36:53;20.33;;;19.00;;
20415;SDS011;10367;52.202;5.996;2022-07-09T09:39:23;20.03;;;18.60;;
20415;SDS011;10367;52.202;5.996;2022-07-09T09:41:53;21.00;;;19.37;;
20415;SDS011;10367;52.202;5.996;2022-07-09T09:44:25;19.93;;;18.70;;
20415;SDS011;10367;52.202;5.996;2022-07-09T09:46:57;19.63;;;18.23;;
20415;SDS011;10367;52.202;5.996;2022-07-09T09:49:26;20.40;;;19.10;;
20415;SDS011;10367;52.202;5.996;2022-07-09T09:51:56;20.53;;;19.03;;
20415;SDS011;10367;52.202;5.996;2022-07-09T09:54:31;21.07;;;19.43;;
20415;SDS011;10367;52.202;5.996;2022-07-09T09:57:02;20.30;;;18.70;;
20415;SDS011;10367;52.202;5.996;2022-07-09T09:59:35;19.07;;;17.87;;
20415;SDS011;10367;52.202;5.996;2022-07-09T10:02:05;20.97;;;19.30;;
20415;SDS011;10367;52.202;5.996;2022-07-09T10:04:36;21.57;;;19.57;;
20415;SDS011;10367;52.202;5.996;2022-07-09T10:07:06;19.37;;;17.97;;
20415;SDS011;10367;52.202;5.996;2022-07-09T10:09:36;22.13;;;20.20;;
20415;SDS011;10367;52.202;5.996;2022-07-09T10:12:05;20.73;;;19.10;;
20415;SDS011;10367;52.202;5.996;2022-07-09T10:14:37;20.70;;;19.03;;
20415;SDS011;10367;52.202;5.996;2022-07-09T10:17:10;22.20;;;20.53;;
20415;SDS011;10367;52.202;5.996;2022-07-09T10:19:50;20.17;;;18.53;;
20415;SDS011;10367;52.202;5.996;2022-07-09T10:22:21;21.50;;;19.87;;
20415;SDS011;10367;52.202;5.996;2022-07-09T10:24:51;20.50;;;19.00;;
20415;SDS011;10367;52.202;5.996;2022-07-09T10:27:20;22.60;;;20.73;;
20415;SDS011;10367;52.202;5.996;2022-07-09T10:29:54;19.87;;;18.67;;
20415;SDS011;10367;52.202;5.996;2022-07-09T10:32:28;21.60;;;19.80;;
20415;SDS011;10367;52.202;5.996;2022-07-09T10:34:58;19.87;;;18.57;;
20415;SDS011;10367;52.202;5.996;2022-07-09T10:37:33;21.03;;;19.47;;
20415;SDS011;10367;52.202;5.996;2022-07-09T10:40:07;20.67;;;19.30;;
20415;SDS011;10367;52.202;5.996;2022-07-09T10:42:37;20.97;;;19.53;;
20415;SDS011;10367;52.202;5.996;2022-07-09T10:45:21;22.33;;;20.57;;
20415;SDS011;10367;52.202;5.996;2022-07-09T10:47:53;21.07;;;19.67;;
20415;SDS011;10367;52.202;5.996;2022-07-09T10:50:24;21.30;;;19.73;;
20415;SDS011;10367;52.202;5.996;2022-07-09T10:52:54;23.53;;;21.47;;
20415;SDS011;10367;52.202;5.996;2022-07-09T10:55:24;22.77;;;20.77;;
20415;SDS011;10367;52.202;5.996;2022-07-09T10:57:54;19.00;;;17.63;;
20415;SDS011;10367;52.202;5.996;2022-07-09T11:00:24;23.00;;;21.03;;
20415;SDS011;10367;52.202;5.996;2022-07-09T11:02:55;22.20;;;20.43;;
20415;SDS011;10367;52.202;5.996;2022-07-09T11:05:30;19.53;;;18.40;;
20415;SDS011;10367;52.202;5.996;2022-07-09T11:08:01;19.40;;;18.10;;
20415;SDS011;10367;52.202;5.996;2022-07-09T11:10:31;20.00;;;18.70;;
20415;SDS011;10367;52.202;5.996;2022-07-09T11:13:03;20.50;;;19.07;;
20415;SDS011;10367;52.202;5.996;2022-07-09T11:15:37;20.43;;;18.90;;
20415;SDS011;10367;52.202;5.996;2022-07-09T11:18:07;20.53;;;19.13;;
20415;SDS011;10367;52.202;5.996;2022-07-09T11:20:38;19.90;;;18.60;;
20415;SDS011;10367;52.202;5.996;2022-07-09T11:23:08;21.37;;;19.97;;
20415;SDS011;10367;52.202;5.996;2022-07-09T11:25:37;20.17;;;18.93;;
20415;SDS011;10367;52.202;5.996;2022-07-09T11:28:06;21.47;;;20.00;;
20415;SDS011;10367;52.202;5.996;2022-07-09T11:30:41;21.37;;;19.90;;
20415;SDS011;10367;52.202;5.996;2022-07-09T11:33:11;21.27;;;19.87;;
20415;SDS011;10367;52.202;5.996;2022-07-09T11:35:43;20.70;;;19.20;;
20415;SDS011;10367;52.202;5.996;2022-07-09T11:38:12;20.53;;;19.07;;
20415;SDS011;10367;52.202;5.996;2022-07-09T11:40:40;20.63;;;19.00;;
20415;SDS011;10367;52.202;5.996;2022-07-09T11:43:12;22.10;;;20.30;;
20415;SDS011;10367;52.202;5.996;2022-07-09T11:45:52;19.77;;;18.57;;
20415;SDS011;10367;52.202;5.996;2022-07-09T11:48:21;20.53;;;19.07;;
20415;SDS011;10367;52.202;5.996;2022-07-09T11:50:50;20.83;;;19.53;;
20415;SDS011;10367;52.202;5.996;2022-07-09T11:53:19;21.70;;;19.97;;
20415;SDS011;10367;52.202;5.996;2022-07-09T11:55:58;20.20;;;18.97;;
20415;SDS011;10367;52.202;5.996;2022-07-09T11:58:28;19.77;;;18.57;;
20415;SDS011;10367;52.202;5.996;2022-07-09T12:00:58;20.03;;;18.83;;
20415;SDS011;10367;52.202;5.996;2022-07-09T12:03:28;21.67;;;19.97;;
20415;SDS011;10367;52.202;5.996;2022-07-09T12:05:58;20.37;;;18.90;;
20415;SDS011;10367;52.202;5.996;2022-07-09T12:08:26;22.13;;;20.27;;
20415;SDS011;10367;52.202;5.996;2022-07-09T12:10:57;20.60;;;19.17;;
20415;SDS011;10367;52.202;5.996;2022-07-09T12:13:27;21.20;;;19.63;;
20415;SDS011;10367;52.202;5.996;2022-07-09T12:15:58;20.27;;;18.73;;
20415;SDS011;10367;52.202;5.996;2022-07-09T12:18:27;21.53;;;19.53;;
20415;SDS011;10367;52.202;5.996;2022-07-09T12:20:55;20.73;;;19.33;;
20415;SDS011;10367;52.202;5.996;2022-07-09T12:23:24;22.70;;;20.70;;
20415;SDS011;10367;52.202;5.996;2022-07-09T12:25:53;20.30;;;18.93;;
20415;SDS011;10367;52.202;5.996;2022-07-09T12:28:22;21.53;;;19.83;;
20415;SDS011;10367;52.202;5.996;2022-07-09T12:30:51;19.83;;;18.43;;
20415;SDS011;10367;52.202;5.996;2022-07-09T12:33:21;20.43;;;19.00;;
20415;SDS011;10367;52.202;5.996;2022-07-09T12:35:49;20.23;;;18.77;;
20415;SDS011;10367;52.202;5.996;2022-07-09T12:38:18;20.70;;;19.20;;
20415;SDS011;10367;52.202;5.996;2022-07-09T12:40:47;20.27;;;18.87;;
20415;SDS011;10367;52.202;5.996;2022-07-09T12:43:16;21.27;;;19.93;;
20415;SDS011;10367;52.202;5.996;2022-07-09T12:45:44;20.57;;;19.27;;
20415;SDS011;10367;52.202;5.996;2022-07-09T12:48:13;20.67;;;19.33;;
20415;SDS011;10367;52.202;5.996;2022-07-09T12:50:43;20.47;;;19.07;;
20415;SDS011;10367;52.202;5.996;2022-07-09T12:53:12;20.17;;;18.83;;
20415;SDS011;10367;52.202;5.996;2022-07-09T12:55:40;20.53;;;19.13;;
20415;SDS011;10367;52.202;5.996;2022-07-09T12:58:28;22.93;;;21.27;;
20415;SDS011;10367;52.202;5.996;2022-07-09T13:00:58;20.50;;;19.00;;
20415;SDS011;10367;52.202;5.996;2022-07-09T13:03:26;21.40;;;19.77;;
20415;SDS011;10367;52.202;5.996;2022-07-09T13:06:16;21.80;;;19.90;;
20415;SDS011;10367;52.202;5.996;2022-07-09T13:09:02;21.93;;;20.27;;
20415;SDS011;10367;52.202;5.996;2022-07-09T13:11:31;22.67;;;21.10;;
20415;SDS011;10367;52.202;5.996;2022-07-09T13:14:01;21.13;;;19.70;;
20415;SDS011;10367;52.202;5.996;2022-07-09T13:16:30;20.60;;;19.30;;
20415;SDS011;10367;52.202;5.996;2022-07-09T13:18:59;21.93;;;20.53;;
20415;SDS011;10367;52.202;5.996;2022-07-09T13:21:30;22.43;;;21.03;;
20415;SDS011;10367;52.202;5.996;2022-07-09T13:23:58;22.33;;;20.93;;
20415;SDS011;10367;52.202;5.996;2022-07-09T13:26:27;21.57;;;20.23;;
20415;SDS011;10367;52.202;5.996;2022-07-09T13:29:02;21.87;;;20.30;;
20415;SDS011;10367;52.202;5.996;2022-07-09T13:31:31;21.70;;;20.17;;
20415;SDS011;10367;52.202;5.996;2022-07-09T13:34:00;24.10;;;22.13;;
20415;SDS011;10367;52.202;5.996;2022-07-09T13:36:30;21.23;;;19.77;;
20415;SDS011;10367;52.202;5.996;2022-07-09T13:38:58;23.33;;;21.63;;
20415;SDS011;10367;52.202;5.996;2022-07-09T13:41:27;22.13;;;20.63;;
20415;SDS011;10367;52.202;5.996;2022-07-09T13:43:56;22.73;;;21.17;;
20415;SDS011;10367;52.202;5.996;2022-07-09T13:46:24;24.53;;;22.43;;
20415;SDS011;10367;52.202;5.996;2022-07-09T13:48:56;20.83;;;19.40;;
20415;SDS011;10367;52.202;5.996;2022-07-09T13:51:25;23.60;;;21.70;;
20415;SDS011;10367;52.202;5.996;2022-07-09T13:53:55;22.13;;;20.47;;
20415;SDS011;10367;52.202;5.996;2022-07-09T13:56:23;21.93;;;20.40;;
20415;SDS011;10367;52.202;5.996;2022-07-09T13:58:52;23.67;;;21.50;;
20415;SDS011;10367;52.202;5.996;2022-07-09T14:01:21;23.27;;;21.57;;
20415;SDS011;10367;52.202;5.996;2022-07-09T14:03:49;23.23;;;21.50;;
20415;SDS011;10367;52.202;5.996;2022-07-09T14:06:21;22.93;;;21.07;;
20415;SDS011;10367;52.202;5.996;2022-07-09T14:09:12;21.83;;;20.43;;
20415;SDS011;10367;52.202;5.996;2022-07-09T14:11:43;24.00;;;22.30;;
20415;SDS011;10367;52.202;5.996;2022-07-09T14:14:12;21.13;;;19.70;;
20415;SDS011;10367;52.202;5.996;2022-07-09T14:16:41;23.07;;;21.27;;
20415;SDS011;10367;52.202;5.996;2022-07-09T14:19:09;20.83;;;19.37;;
20415;SDS011;10367;52.202;5.996;2022-07-09T14:21:38;22.67;;;20.97;;
20415;SDS011;10367;52.202;5.996;2022-07-09T14:24:13;21.23;;;19.60;;
20415;SDS011;10367;52.202;5.996;2022-07-09T14:26:42;22.03;;;20.43;;
20415;SDS011;10367;52.202;5.996;2022-07-09T14:29:12;21.23;;;19.93;;
20415;SDS011;10367;52.202;5.996;2022-07-09T14:31:49;22.90;;;21.00;;
20415;SDS011;10367;52.202;5.996;2022-07-09T14:34:18;22.60;;;20.70;;
20415;SDS011;10367;52.202;5.996;2022-07-09T14:36:48;21.73;;;19.97;;
20415;SDS011;10367;52.202;5.996;2022-07-09T14:39:19;22.63;;;20.57;;